2CUTH EGBJ-EGJA
Flight info
| Callsign | 2CUTH |
|---|---|
| Flight time | 1h 16m |
| Altitude | 9000 |
| Route | BCN DCT EXMOR N92 DAWLY N864 SKERY |
| Aircraft | DA62/L-SBDFGRY/S |
Departure
| Time | 2026-04-22 09:33 |
|---|---|
| Airport | Gloucestershire Airport (EGBJ) |
Arrival
| Time | 2026-04-22 10:50 |
|---|---|
| Airport | Alderney Airport (EGJA) |
| Time | Latitude | Longitude | Altitude | Speed | Heading |
|---|---|---|---|---|---|
| 2026-04-22 09:25 | 51.89273 | -2.15867 | 91 ft | 0 kts | 269° |
| 2026-04-22 09:29 | 51.89274 | -2.15871 | 91 ft | 2 kts | 300° |
| 2026-04-22 09:30 | 51.89281 | -2.15855 | 93 ft | 4 kts | 88° |
| 2026-04-22 09:30 | 51.89331 | -2.15841 | 92 ft | 13 kts | 348° |
| 2026-04-22 09:30 | 51.89412 | -2.15929 | 91 ft | 15 kts | 319° |
| 2026-04-22 09:30 | 51.89449 | -2.16147 | 89 ft | 33 kts | 263° |
| 2026-04-22 09:31 | 51.89414 | -2.16633 | 88 ft | 51 kts | 263° |
| 2026-04-22 09:31 | 51.89380 | -2.17165 | 82 ft | 45 kts | 264° |
| 2026-04-22 09:31 | 51.89351 | -2.17612 | 76 ft | 27 kts | 272° |
| 2026-04-22 09:31 | 51.89345 | -2.17748 | 68 ft | 6 kts | 147° |
| 2026-04-22 09:32 | 51.89341 | -2.17728 | 66 ft | 0 kts | 83° |
| 2026-04-22 09:32 | 51.89344 | -2.17684 | 69 ft | 23 kts | 82° |
| 2026-04-22 09:32 | 51.89383 | -2.17101 | 110 ft | 74 kts | 82° |
| 2026-04-22 09:33 | 51.89452 | -2.16149 | 297 ft | 97 kts | 83° |
| 2026-04-22 09:33 | 51.89526 | -2.15017 | 618 ft | 102 kts | 82° |
| 2026-04-22 09:33 | 51.89564 | -2.13867 | 927 ft | 103 kts | 84° |
| 2026-04-22 09:33 | 51.89749 | -2.12786 | 1318 ft | 105 kts | 49° |
| 2026-04-22 09:34 | 51.90503 | -2.12664 | 1732 ft | 127 kts | 348° |
| 2026-04-22 09:34 | 51.91104 | -2.13818 | 2050 ft | 148 kts | 284° |
| 2026-04-22 09:34 | 51.91008 | -2.15455 | 2434 ft | 151 kts | 255° |
| 2026-04-22 09:35 | 51.90493 | -2.18720 | 3229 ft | 150 kts | 249° |
| 2026-04-22 09:35 | 51.90215 | -2.20359 | 3612 ft | 152 kts | 249° |
| 2026-04-22 09:35 | 51.89945 | -2.22020 | 4000 ft | 152 kts | 250° |
| 2026-04-22 09:35 | 51.89676 | -2.23681 | 4354 ft | 153 kts | 248° |
| 2026-04-22 09:36 | 51.89406 | -2.25344 | 4735 ft | 152 kts | 248° |
| 2026-04-22 09:36 | 51.89138 | -2.27002 | 5098 ft | 152 kts | 248° |
| 2026-04-22 09:36 | 51.88869 | -2.28660 | 5443 ft | 153 kts | 248° |
| 2026-04-22 09:36 | 51.88599 | -2.30319 | 5818 ft | 152 kts | 248° |
| 2026-04-22 09:37 | 51.88332 | -2.31958 | 6162 ft | 153 kts | 248° |
| 2026-04-22 09:37 | 51.88062 | -2.33618 | 6498 ft | 152 kts | 247° |
| 2026-04-22 09:37 | 51.87790 | -2.35287 | 6823 ft | 153 kts | 247° |
| 2026-04-22 09:37 | 51.87516 | -2.36965 | 7126 ft | 155 kts | 247° |
| 2026-04-22 09:38 | 51.87242 | -2.38645 | 7453 ft | 155 kts | 247° |
| 2026-04-22 09:38 | 51.86969 | -2.40323 | 7782 ft | 154 kts | 247° |
| 2026-04-22 09:38 | 51.86692 | -2.42010 | 8131 ft | 155 kts | 248° |
| 2026-04-22 09:38 | 51.86416 | -2.43701 | 8469 ft | 156 kts | 248° |
| 2026-04-22 09:39 | 51.86138 | -2.45395 | 8782 ft | 156 kts | 247° |
| 2026-04-22 09:39 | 51.85953 | -2.46518 | 9011 ft | 156 kts | 247° |
| 2026-04-22 09:39 | 51.85578 | -2.48798 | 9323 ft | 167 kts | 248° |
| 2026-04-22 09:39 | 51.85258 | -2.50714 | 9331 ft | 185 kts | 249° |
| 2026-04-22 09:40 | 51.84924 | -2.52757 | 9335 ft | 191 kts | 249° |
| 2026-04-22 09:40 | 51.84693 | -2.54174 | 9332 ft | 193 kts | 249° |
| 2026-04-22 09:40 | 51.84347 | -2.56288 | 9333 ft | 196 kts | 249° |
| 2026-04-22 09:40 | 51.83996 | -2.58419 | 9402 ft | 195 kts | 249° |
| 2026-04-22 09:41 | 51.83646 | -2.60534 | 9410 ft | 194 kts | 249° |
| 2026-04-22 09:41 | 51.83293 | -2.62660 | 9419 ft | 197 kts | 249° |
| 2026-04-22 09:41 | 51.82938 | -2.64798 | 9425 ft | 196 kts | 249° |
| 2026-04-22 09:41 | 51.82592 | -2.66896 | 9425 ft | 196 kts | 249° |
| 2026-04-22 09:42 | 51.82239 | -2.69015 | 9438 ft | 195 kts | 249° |
| 2026-04-22 09:42 | 51.81883 | -2.71146 | 9449 ft | 197 kts | 249° |
| 2026-04-22 09:42 | 51.81528 | -2.73283 | 9449 ft | 197 kts | 249° |
| 2026-04-22 09:42 | 51.81171 | -2.75423 | 9458 ft | 198 kts | 249° |
| 2026-04-22 09:43 | 51.80814 | -2.77560 | 9468 ft | 196 kts | 249° |
| 2026-04-22 09:43 | 51.80460 | -2.79685 | 9480 ft | 196 kts | 248° |
| 2026-04-22 09:43 | 51.80103 | -2.81804 | 9490 ft | 196 kts | 249° |
| 2026-04-22 09:43 | 51.79748 | -2.83928 | 9486 ft | 196 kts | 248° |
| 2026-04-22 09:44 | 51.79392 | -2.86050 | 9487 ft | 195 kts | 248° |
| 2026-04-22 09:44 | 51.79039 | -2.88172 | 9485 ft | 195 kts | 248° |
| 2026-04-22 09:44 | 51.78685 | -2.90252 | 9488 ft | 194 kts | 248° |
| 2026-04-22 09:44 | 51.78331 | -2.92352 | 9488 ft | 194 kts | 248° |
| 2026-04-22 09:45 | 51.77976 | -2.94456 | 9491 ft | 194 kts | 248° |
| 2026-04-22 09:45 | 51.77621 | -2.96565 | 9492 ft | 195 kts | 248° |
| 2026-04-22 09:45 | 51.77264 | -2.98678 | 9489 ft | 194 kts | 248° |
| 2026-04-22 09:45 | 51.76907 | -3.00783 | 9485 ft | 195 kts | 248° |
| 2026-04-22 09:46 | 51.76548 | -3.02897 | 9494 ft | 196 kts | 248° |
| 2026-04-22 09:46 | 51.76185 | -3.05038 | 9489 ft | 198 kts | 248° |
| 2026-04-22 09:46 | 51.75823 | -3.07174 | 9491 ft | 197 kts | 248° |
| 2026-04-22 09:46 | 51.75465 | -3.09276 | 9478 ft | 197 kts | 248° |
| 2026-04-22 09:47 | 51.75104 | -3.11400 | 9479 ft | 196 kts | 248° |
| 2026-04-22 09:47 | 51.74742 | -3.13520 | 9464 ft | 194 kts | 248° |
| 2026-04-22 09:47 | 51.74383 | -3.15625 | 9457 ft | 194 kts | 248° |
| 2026-04-22 09:47 | 51.74022 | -3.17733 | 9445 ft | 195 kts | 247° |
| 2026-04-22 09:48 | 51.73661 | -3.19844 | 9440 ft | 196 kts | 247° |
| 2026-04-22 09:48 | 51.73297 | -3.21962 | 9433 ft | 196 kts | 247° |
| 2026-04-22 09:48 | 51.72781 | -3.23938 | 9418 ft | 186 kts | 227° |
| 2026-04-22 09:48 | 51.71935 | -3.25439 | 9419 ft | 178 kts | 209° |
| 2026-04-22 09:49 | 51.70889 | -3.26402 | 9407 ft | 168 kts | 191° |
| 2026-04-22 09:49 | 51.69780 | -3.26805 | 9408 ft | 160 kts | 176° |
| 2026-04-22 09:49 | 51.68665 | -3.26988 | 9408 ft | 162 kts | 178° |
| 2026-04-22 09:49 | 51.67554 | -3.27196 | 9398 ft | 162 kts | 178° |
| 2026-04-22 09:50 | 51.66437 | -3.27399 | 9395 ft | 160 kts | 178° |
| 2026-04-22 09:50 | 51.65329 | -3.27595 | 9390 ft | 161 kts | 178° |
| 2026-04-22 09:50 | 51.64220 | -3.27793 | 9384 ft | 160 kts | 177° |
| 2026-04-22 09:50 | 51.63118 | -3.27990 | 9387 ft | 159 kts | 178° |
| 2026-04-22 09:51 | 51.62021 | -3.28186 | 9285 ft | 158 kts | 177° |
| 2026-04-22 09:51 | 51.60913 | -3.28380 | 9282 ft | 160 kts | 178° |
| 2026-04-22 09:51 | 51.59798 | -3.28578 | 9284 ft | 162 kts | 178° |
| 2026-04-22 09:51 | 51.58688 | -3.28777 | 9276 ft | 161 kts | 178° |
| 2026-04-22 09:52 | 51.57578 | -3.28976 | 9278 ft | 160 kts | 177° |
| 2026-04-22 09:52 | 51.56467 | -3.29173 | 9280 ft | 160 kts | 178° |
| 2026-04-22 09:52 | 51.55356 | -3.29371 | 9271 ft | 160 kts | 177° |
| 2026-04-22 09:52 | 51.54251 | -3.29566 | 9281 ft | 160 kts | 178° |
| 2026-04-22 09:53 | 51.53134 | -3.29761 | 9275 ft | 162 kts | 178° |
| 2026-04-22 09:53 | 51.52006 | -3.29965 | 9273 ft | 163 kts | 178° |
| 2026-04-22 09:53 | 51.50874 | -3.30164 | 9273 ft | 163 kts | 178° |
| 2026-04-22 09:53 | 51.49745 | -3.30366 | 9271 ft | 163 kts | 178° |
| 2026-04-22 09:54 | 51.48633 | -3.30562 | 9273 ft | 162 kts | 178° |
| 2026-04-22 09:54 | 51.47516 | -3.30761 | 9272 ft | 161 kts | 178° |
| 2026-04-22 09:54 | 51.46403 | -3.30958 | 9272 ft | 160 kts | 177° |
| 2026-04-22 09:54 | 51.45292 | -3.31153 | 9275 ft | 161 kts | 177° |
| 2026-04-22 09:55 | 51.44179 | -3.31351 | 9272 ft | 161 kts | 178° |
| 2026-04-22 09:55 | 51.43064 | -3.31547 | 9275 ft | 162 kts | 178° |
| 2026-04-22 09:55 | 51.41942 | -3.31745 | 9275 ft | 162 kts | 178° |
| 2026-04-22 09:55 | 51.40824 | -3.31942 | 9272 ft | 161 kts | 178° |
| 2026-04-22 09:56 | 51.39707 | -3.32140 | 9275 ft | 161 kts | 178° |
| 2026-04-22 09:56 | 51.38592 | -3.32337 | 9275 ft | 161 kts | 178° |
| 2026-04-22 09:56 | 51.37481 | -3.32533 | 9274 ft | 160 kts | 178° |
| 2026-04-22 09:56 | 51.36372 | -3.32728 | 9272 ft | 160 kts | 177° |
| 2026-04-22 09:57 | 51.35285 | -3.32920 | 9270 ft | 159 kts | 177° |
| 2026-04-22 09:57 | 51.34182 | -3.33114 | 9271 ft | 159 kts | 177° |
| 2026-04-22 09:57 | 51.33081 | -3.33307 | 9270 ft | 159 kts | 177° |
| 2026-04-22 09:57 | 51.31977 | -3.33501 | 9271 ft | 159 kts | 177° |
| 2026-04-22 09:58 | 51.30876 | -3.33695 | 9273 ft | 159 kts | 177° |
| 2026-04-22 09:58 | 51.29776 | -3.33888 | 9271 ft | 159 kts | 177° |
| 2026-04-22 09:58 | 51.28678 | -3.34081 | 9269 ft | 159 kts | 177° |
| 2026-04-22 09:58 | 51.27589 | -3.34271 | 9272 ft | 159 kts | 177° |
| 2026-04-22 09:59 | 51.26484 | -3.34465 | 9273 ft | 159 kts | 177° |
| 2026-04-22 09:59 | 51.25380 | -3.34659 | 9275 ft | 159 kts | 177° |
| 2026-04-22 09:59 | 51.24277 | -3.34853 | 9275 ft | 159 kts | 177° |
| 2026-04-22 09:59 | 51.23173 | -3.35046 | 9273 ft | 159 kts | 177° |
| 2026-04-22 10:00 | 51.22071 | -3.35239 | 9269 ft | 159 kts | 177° |
| 2026-04-22 10:00 | 51.20969 | -3.35431 | 9270 ft | 159 kts | 177° |
| 2026-04-22 10:00 | 51.19868 | -3.35624 | 9266 ft | 159 kts | 177° |
| 2026-04-22 10:00 | 51.18766 | -3.35817 | 9283 ft | 159 kts | 177° |
| 2026-04-22 10:01 | 51.17663 | -3.36010 | 9265 ft | 160 kts | 177° |
| 2026-04-22 10:01 | 51.16554 | -3.36202 | 9271 ft | 161 kts | 178° |
| 2026-04-22 10:01 | 51.15437 | -3.36397 | 9265 ft | 161 kts | 177° |
| 2026-04-22 10:01 | 51.14325 | -3.36592 | 9270 ft | 161 kts | 178° |
| 2026-04-22 10:02 | 51.13227 | -3.36785 | 9266 ft | 161 kts | 177° |
| 2026-04-22 10:02 | 51.12110 | -3.36977 | 9260 ft | 161 kts | 178° |
| 2026-04-22 10:02 | 51.10989 | -3.37174 | 9260 ft | 162 kts | 177° |
| 2026-04-22 10:02 | 51.09868 | -3.37368 | 9261 ft | 162 kts | 177° |
| 2026-04-22 10:03 | 51.08750 | -3.37565 | 9259 ft | 161 kts | 178° |
| 2026-04-22 10:03 | 51.07629 | -3.37758 | 9254 ft | 162 kts | 178° |
| 2026-04-22 10:03 | 51.06497 | -3.37955 | 9253 ft | 164 kts | 178° |
| 2026-04-22 10:03 | 51.05371 | -3.38152 | 9248 ft | 162 kts | 178° |
| 2026-04-22 10:04 | 51.04247 | -3.38347 | 9244 ft | 162 kts | 178° |
| 2026-04-22 10:04 | 51.03136 | -3.38541 | 9249 ft | 163 kts | 178° |
| 2026-04-22 10:04 | 51.02007 | -3.38733 | 9241 ft | 163 kts | 178° |
| 2026-04-22 10:04 | 51.00880 | -3.38930 | 9244 ft | 162 kts | 178° |
| 2026-04-22 10:05 | 50.99756 | -3.39124 | 9241 ft | 162 kts | 178° |
| 2026-04-22 10:05 | 50.98636 | -3.39320 | 9237 ft | 162 kts | 178° |
| 2026-04-22 10:05 | 50.97515 | -3.39515 | 9245 ft | 162 kts | 178° |
| 2026-04-22 10:05 | 50.96395 | -3.39707 | 9246 ft | 162 kts | 178° |
| 2026-04-22 10:06 | 50.95276 | -3.39902 | 9245 ft | 161 kts | 178° |
| 2026-04-22 10:06 | 50.94158 | -3.40095 | 9244 ft | 161 kts | 178° |
| 2026-04-22 10:06 | 50.93051 | -3.40289 | 9244 ft | 162 kts | 178° |
| 2026-04-22 10:06 | 50.91930 | -3.40479 | 9247 ft | 162 kts | 178° |
| 2026-04-22 10:07 | 50.90808 | -3.40671 | 9246 ft | 162 kts | 178° |
| 2026-04-22 10:07 | 50.89684 | -3.40867 | 9241 ft | 162 kts | 178° |
| 2026-04-22 10:07 | 50.88561 | -3.41062 | 9247 ft | 162 kts | 178° |
| 2026-04-22 10:07 | 50.87434 | -3.41256 | 9241 ft | 163 kts | 178° |
| 2026-04-22 10:08 | 50.86320 | -3.41448 | 9239 ft | 164 kts | 178° |
| 2026-04-22 10:08 | 50.85192 | -3.41641 | 9242 ft | 163 kts | 178° |
| 2026-04-22 10:08 | 50.84067 | -3.41836 | 9247 ft | 162 kts | 178° |
| 2026-04-22 10:08 | 50.82943 | -3.42030 | 9248 ft | 163 kts | 178° |
| 2026-04-22 10:09 | 50.81814 | -3.42224 | 9241 ft | 164 kts | 178° |
| 2026-04-22 10:09 | 50.80683 | -3.42418 | 9242 ft | 163 kts | 178° |
| 2026-04-22 10:09 | 50.79559 | -3.42612 | 9240 ft | 163 kts | 178° |
| 2026-04-22 10:09 | 50.78437 | -3.42804 | 9244 ft | 162 kts | 178° |
| 2026-04-22 10:10 | 50.77316 | -3.42996 | 9248 ft | 162 kts | 178° |
| 2026-04-22 10:10 | 50.76191 | -3.43189 | 9244 ft | 162 kts | 178° |
| 2026-04-22 10:10 | 50.75083 | -3.43378 | 9242 ft | 162 kts | 178° |
| 2026-04-22 10:10 | 50.73946 | -3.43576 | 9251 ft | 162 kts | 179° |
| 2026-04-22 10:11 | 50.72834 | -3.43764 | 9242 ft | 163 kts | 178° |
| 2026-04-22 10:11 | 50.71703 | -3.43958 | 9246 ft | 164 kts | 178° |
| 2026-04-22 10:11 | 50.70569 | -3.44153 | 9249 ft | 164 kts | 178° |
| 2026-04-22 10:11 | 50.69425 | -3.44347 | 9247 ft | 165 kts | 178° |
| 2026-04-22 10:12 | 50.68282 | -3.44539 | 9242 ft | 165 kts | 178° |
| 2026-04-22 10:12 | 50.67144 | -3.44741 | 9243 ft | 164 kts | 178° |
| 2026-04-22 10:12 | 50.66016 | -3.44933 | 9245 ft | 163 kts | 178° |
| 2026-04-22 10:12 | 50.64891 | -3.45125 | 9244 ft | 162 kts | 178° |
| 2026-04-22 10:13 | 50.63766 | -3.45316 | 9244 ft | 163 kts | 178° |
| 2026-04-22 10:13 | 50.62640 | -3.45508 | 9245 ft | 163 kts | 178° |
| 2026-04-22 10:13 | 50.61508 | -3.45700 | 9247 ft | 164 kts | 178° |
| 2026-04-22 10:13 | 50.60374 | -3.45893 | 9243 ft | 164 kts | 178° |
| 2026-04-22 10:14 | 50.59253 | -3.46085 | 9242 ft | 164 kts | 178° |
| 2026-04-22 10:14 | 50.58110 | -3.46278 | 9243 ft | 166 kts | 179° |
| 2026-04-22 10:14 | 50.56965 | -3.46474 | 9241 ft | 165 kts | 178° |
| 2026-04-22 10:14 | 50.55833 | -3.46668 | 9234 ft | 163 kts | 178° |
| 2026-04-22 10:15 | 50.54700 | -3.46860 | 9234 ft | 163 kts | 178° |
| 2026-04-22 10:15 | 50.53575 | -3.47051 | 9231 ft | 162 kts | 178° |
| 2026-04-22 10:15 | 50.52454 | -3.47242 | 9232 ft | 162 kts | 177° |
| 2026-04-22 10:15 | 50.51335 | -3.47432 | 9232 ft | 161 kts | 177° |
| 2026-04-22 10:16 | 50.50231 | -3.47619 | 9230 ft | 162 kts | 178° |
| 2026-04-22 10:16 | 50.49111 | -3.47808 | 9230 ft | 162 kts | 176° |
| 2026-04-22 10:16 | 50.47991 | -3.47998 | 9231 ft | 161 kts | 177° |
| 2026-04-22 10:16 | 50.46874 | -3.48186 | 9229 ft | 161 kts | 177° |
| 2026-04-22 10:17 | 50.45760 | -3.48375 | 9229 ft | 161 kts | 177° |
| 2026-04-22 10:17 | 50.44645 | -3.48563 | 9227 ft | 161 kts | 179° |
| 2026-04-22 10:17 | 50.43525 | -3.48753 | 9224 ft | 161 kts | 179° |
| 2026-04-22 10:17 | 50.42424 | -3.48938 | 9224 ft | 161 kts | 178° |
| 2026-04-22 10:18 | 50.41308 | -3.49126 | 9219 ft | 161 kts | 180° |
| 2026-04-22 10:18 | 50.40199 | -3.49208 | 9220 ft | 156 kts | 166° |
| 2026-04-22 10:18 | 50.39161 | -3.48787 | 9211 ft | 153 kts | 152° |
| 2026-04-22 10:18 | 50.38221 | -3.48036 | 9213 ft | 151 kts | 146° |
| 2026-04-22 10:19 | 50.37284 | -3.47280 | 9214 ft | 151 kts | 146° |
| 2026-04-22 10:19 | 50.36346 | -3.46520 | 9218 ft | 152 kts | 147° |
| 2026-04-22 10:19 | 50.35410 | -3.45762 | 9215 ft | 152 kts | 147° |
| 2026-04-22 10:19 | 50.34472 | -3.45001 | 9218 ft | 152 kts | 146° |
| 2026-04-22 10:20 | 50.33534 | -3.44244 | 9214 ft | 151 kts | 147° |
| 2026-04-22 10:20 | 50.32600 | -3.43486 | 9216 ft | 151 kts | 147° |
| 2026-04-22 10:20 | 50.31675 | -3.42738 | 9214 ft | 151 kts | 148° |
| 2026-04-22 10:20 | 50.30741 | -3.41983 | 9215 ft | 151 kts | 148° |
| 2026-04-22 10:21 | 50.29805 | -3.41228 | 9214 ft | 151 kts | 148° |
| 2026-04-22 10:21 | 50.28870 | -3.40471 | 9212 ft | 152 kts | 147° |
| 2026-04-22 10:21 | 50.27931 | -3.39714 | 9211 ft | 152 kts | 148° |
| 2026-04-22 10:21 | 50.26994 | -3.38956 | 9213 ft | 152 kts | 148° |
| 2026-04-22 10:22 | 50.26054 | -3.38199 | 9211 ft | 152 kts | 146° |
| 2026-04-22 10:22 | 50.25114 | -3.37439 | 9210 ft | 152 kts | 148° |
| 2026-04-22 10:22 | 50.24176 | -3.36683 | 9212 ft | 152 kts | 149° |
| 2026-04-22 10:22 | 50.23235 | -3.35927 | 9212 ft | 152 kts | 147° |
| 2026-04-22 10:23 | 50.22300 | -3.35171 | 9212 ft | 151 kts | 147° |
| 2026-04-22 10:23 | 50.21374 | -3.34429 | 9206 ft | 152 kts | 148° |
| 2026-04-22 10:23 | 50.20433 | -3.33671 | 9205 ft | 152 kts | 148° |
| 2026-04-22 10:23 | 50.19494 | -3.32913 | 9205 ft | 152 kts | 148° |
| 2026-04-22 10:24 | 50.18550 | -3.32155 | 9207 ft | 152 kts | 148° |
| 2026-04-22 10:24 | 50.17605 | -3.31397 | 9206 ft | 152 kts | 146° |
| 2026-04-22 10:24 | 50.16661 | -3.30639 | 9204 ft | 152 kts | 148° |
| 2026-04-22 10:24 | 50.15720 | -3.29882 | 9202 ft | 153 kts | 149° |
| 2026-04-22 10:25 | 50.14787 | -3.29133 | 9203 ft | 153 kts | 147° |
| 2026-04-22 10:25 | 50.13841 | -3.28376 | 9203 ft | 153 kts | 147° |
| 2026-04-22 10:25 | 50.12892 | -3.27613 | 9203 ft | 153 kts | 148° |
| 2026-04-22 10:25 | 50.11941 | -3.26852 | 9199 ft | 154 kts | 147° |
| 2026-04-22 10:26 | 50.10989 | -3.26089 | 9202 ft | 154 kts | 147° |
| 2026-04-22 10:26 | 50.10035 | -3.25325 | 9200 ft | 154 kts | 148° |
| 2026-04-22 10:26 | 50.09080 | -3.24559 | 9202 ft | 155 kts | 148° |
| 2026-04-22 10:26 | 50.08123 | -3.23795 | 9201 ft | 155 kts | 149° |
| 2026-04-22 10:27 | 50.07164 | -3.23028 | 9198 ft | 155 kts | 148° |
| 2026-04-22 10:27 | 50.06206 | -3.22261 | 9196 ft | 155 kts | 148° |
| 2026-04-22 10:27 | 50.05247 | -3.21496 | 9197 ft | 155 kts | 147° |
| 2026-04-22 10:27 | 50.04286 | -3.20729 | 9196 ft | 155 kts | 148° |
| 2026-04-22 10:28 | 50.03650 | -3.20221 | 9197 ft | 155 kts | 149° |
| 2026-04-22 10:28 | 50.02378 | -3.19206 | 9194 ft | 155 kts | 148° |
| 2026-04-22 10:28 | 50.01418 | -3.18440 | 9193 ft | 155 kts | 149° |
| 2026-04-22 10:28 | 50.00487 | -3.17603 | 9194 ft | 153 kts | 139° |
| 2026-04-22 10:29 | 49.99776 | -3.16393 | 9193 ft | 152 kts | 122° |
| 2026-04-22 10:29 | 49.99448 | -3.15436 | 9191 ft | 152 kts | 114° |
| 2026-04-22 10:29 | 49.99014 | -3.13936 | 9194 ft | 152 kts | 115° |
| 2026-04-22 10:29 | 49.98573 | -3.12444 | 9197 ft | 152 kts | 114° |
| 2026-04-22 10:30 | 49.98132 | -3.10947 | 9192 ft | 152 kts | 114° |
| 2026-04-22 10:30 | 49.97690 | -3.09445 | 9191 ft | 153 kts | 114° |
| 2026-04-22 10:30 | 49.97248 | -3.07941 | 9194 ft | 153 kts | 114° |
| 2026-04-22 10:30 | 49.96803 | -3.06433 | 9195 ft | 154 kts | 114° |
| 2026-04-22 10:31 | 49.96359 | -3.04924 | 9191 ft | 154 kts | 114° |
| 2026-04-22 10:31 | 49.95902 | -3.03425 | 9195 ft | 154 kts | 117° |
| 2026-04-22 10:31 | 49.95374 | -3.01983 | 9195 ft | 153 kts | 118° |
| 2026-04-22 10:31 | 49.94852 | -3.00539 | 9193 ft | 153 kts | 118° |
| 2026-04-22 10:32 | 49.94334 | -2.99083 | 9196 ft | 153 kts | 117° |
| 2026-04-22 10:32 | 49.93826 | -2.97651 | 9196 ft | 153 kts | 117° |
| 2026-04-22 10:32 | 49.93311 | -2.96196 | 9192 ft | 154 kts | 118° |
| 2026-04-22 10:32 | 49.92796 | -2.94742 | 9194 ft | 154 kts | 117° |
| 2026-04-22 10:33 | 49.92270 | -2.93261 | 9070 ft | 159 kts | 118° |
| 2026-04-22 10:33 | 49.91747 | -2.91789 | 8860 ft | 153 kts | 118° |
| 2026-04-22 10:33 | 49.91238 | -2.90357 | 8652 ft | 149 kts | 117° |
| 2026-04-22 10:33 | 49.90740 | -2.88954 | 8441 ft | 147 kts | 117° |
| 2026-04-22 10:34 | 49.90255 | -2.87591 | 8237 ft | 145 kts | 117° |
| 2026-04-22 10:34 | 49.89772 | -2.86232 | 8034 ft | 143 kts | 117° |
| 2026-04-22 10:34 | 49.89295 | -2.84890 | 7828 ft | 141 kts | 117° |
| 2026-04-22 10:34 | 49.88820 | -2.83559 | 7628 ft | 140 kts | 117° |
| 2026-04-22 10:35 | 49.88351 | -2.82241 | 7428 ft | 139 kts | 117° |
| 2026-04-22 10:35 | 49.87885 | -2.80933 | 7228 ft | 138 kts | 117° |
| 2026-04-22 10:35 | 49.87420 | -2.79629 | 7029 ft | 138 kts | 117° |
| 2026-04-22 10:35 | 49.86963 | -2.78348 | 6842 ft | 137 kts | 117° |
| 2026-04-22 10:36 | 49.86505 | -2.77064 | 6642 ft | 136 kts | 117° |
| 2026-04-22 10:36 | 49.86048 | -2.75785 | 6439 ft | 135 kts | 117° |
| 2026-04-22 10:36 | 49.85594 | -2.74515 | 6230 ft | 134 kts | 117° |
| 2026-04-22 10:36 | 49.85142 | -2.73250 | 6022 ft | 134 kts | 117° |
| 2026-04-22 10:37 | 49.84692 | -2.71992 | 5815 ft | 133 kts | 116° |
| 2026-04-22 10:37 | 49.83803 | -2.69506 | 5412 ft | 131 kts | 116° |
| 2026-04-22 10:37 | 49.83364 | -2.68283 | 5250 ft | 129 kts | 116° |
| 2026-04-22 10:38 | 49.82933 | -2.67079 | 5100 ft | 127 kts | 115° |
| 2026-04-22 10:38 | 49.82506 | -2.65890 | 4943 ft | 126 kts | 115° |
| 2026-04-22 10:38 | 49.82087 | -2.64720 | 4782 ft | 125 kts | 115° |
| 2026-04-22 10:38 | 49.81665 | -2.63543 | 4624 ft | 124 kts | 115° |
| 2026-04-22 10:39 | 49.81245 | -2.62375 | 4466 ft | 124 kts | 115° |
| 2026-04-22 10:39 | 49.80828 | -2.61213 | 4306 ft | 123 kts | 115° |
| 2026-04-22 10:39 | 49.80414 | -2.60062 | 4152 ft | 122 kts | 114° |
| 2026-04-22 10:39 | 49.80001 | -2.58913 | 3996 ft | 122 kts | 114° |
| 2026-04-22 10:40 | 49.79589 | -2.57766 | 3842 ft | 122 kts | 114° |
| 2026-04-22 10:40 | 49.79177 | -2.56621 | 3686 ft | 122 kts | 113° |
| 2026-04-22 10:40 | 49.78764 | -2.55475 | 3536 ft | 122 kts | 113° |
| 2026-04-22 10:40 | 49.78353 | -2.54333 | 3385 ft | 121 kts | 113° |
| 2026-04-22 10:41 | 49.77942 | -2.53191 | 3225 ft | 121 kts | 113° |
| 2026-04-22 10:41 | 49.77539 | -2.52074 | 3134 ft | 117 kts | 113° |
| 2026-04-22 10:41 | 49.77155 | -2.51011 | 3046 ft | 113 kts | 112° |
| 2026-04-22 10:41 | 49.76774 | -2.49955 | 2968 ft | 111 kts | 112° |
| 2026-04-22 10:42 | 49.76399 | -2.48914 | 2880 ft | 110 kts | 112° |
| 2026-04-22 10:42 | 49.76025 | -2.47880 | 2811 ft | 110 kts | 112° |
| 2026-04-22 10:42 | 49.75575 | -2.46911 | 2737 ft | 114 kts | 126° |
| 2026-04-22 10:42 | 49.74926 | -2.46164 | 2654 ft | 120 kts | 141° |
| 2026-04-22 10:43 | 49.74108 | -2.45742 | 2573 ft | 128 kts | 157° |
| 2026-04-22 10:43 | 49.73230 | -2.45497 | 2494 ft | 128 kts | 156° |
| 2026-04-22 10:43 | 49.72368 | -2.45243 | 2419 ft | 127 kts | 156° |
| 2026-04-22 10:43 | 49.71495 | -2.44986 | 2343 ft | 128 kts | 156° |
| 2026-04-22 10:44 | 49.70616 | -2.44728 | 2265 ft | 129 kts | 156° |
| 2026-04-22 10:44 | 49.69778 | -2.44347 | 2188 ft | 121 kts | 140° |
| 2026-04-22 10:44 | 49.69118 | -2.43618 | 2109 ft | 114 kts | 125° |
| 2026-04-22 10:44 | 49.68659 | -2.42665 | 2033 ft | 109 kts | 111° |
| 2026-04-22 10:45 | 49.68412 | -2.41580 | 1998 ft | 108 kts | 98° |
| 2026-04-22 10:45 | 49.68375 | -2.40429 | 1996 ft | 107 kts | 84° |
| 2026-04-22 10:45 | 49.68508 | -2.39315 | 1998 ft | 105 kts | 81° |
| 2026-04-22 10:45 | 49.68640 | -2.38212 | 1993 ft | 104 kts | 81° |
| 2026-04-22 10:46 | 49.68775 | -2.37107 | 1997 ft | 106 kts | 81° |
| 2026-04-22 10:46 | 49.68909 | -2.35999 | 1997 ft | 106 kts | 81° |
| 2026-04-22 10:46 | 49.69047 | -2.34865 | 1965 ft | 108 kts | 81° |
| 2026-04-22 10:46 | 49.69187 | -2.33712 | 1837 ft | 108 kts | 81° |
| 2026-04-22 10:47 | 49.69323 | -2.32601 | 1688 ft | 103 kts | 80° |
| 2026-04-22 10:47 | 49.69452 | -2.31540 | 1545 ft | 98 kts | 80° |
| 2026-04-22 10:47 | 49.69577 | -2.30514 | 1409 ft | 97 kts | 80° |
| 2026-04-22 10:47 | 49.69703 | -2.29479 | 1279 ft | 99 kts | 81° |
| 2026-04-22 10:48 | 49.69830 | -2.28444 | 1133 ft | 98 kts | 81° |
| 2026-04-22 10:48 | 49.69949 | -2.27446 | 1002 ft | 91 kts | 80° |
| 2026-04-22 10:48 | 49.70061 | -2.26529 | 874 ft | 80 kts | 81° |
| 2026-04-22 10:48 | 49.70160 | -2.25717 | 772 ft | 76 kts | 81° |
| 2026-04-22 10:49 | 49.70256 | -2.24930 | 668 ft | 73 kts | 82° |
| 2026-04-22 10:49 | 49.70352 | -2.24175 | 579 ft | 70 kts | 81° |
| 2026-04-22 10:49 | 49.70437 | -2.23454 | 512 ft | 67 kts | 81° |
| 2026-04-22 10:49 | 49.70525 | -2.22737 | 384 ft | 67 kts | 82° |
| 2026-04-22 10:50 | 49.70605 | -2.22039 | 306 ft | 66 kts | 82° |
| 2026-04-22 10:50 | 49.70665 | -2.21553 | 285 ft | 10 kts | 78° |
| 2026-04-22 10:50 | 49.70695 | -2.21546 | 284 ft | 6 kts | 339° |
| 2026-04-22 10:50 | 49.70756 | -2.21580 | 279 ft | 12 kts | 4° |
| 2026-04-22 10:51 | 49.70793 | -2.21502 | 276 ft | 6 kts | 67° |
| 2026-04-22 10:51 | 49.70817 | -2.21423 | 276 ft | 12 kts | 52° |
| 2026-04-22 10:51 | 49.70826 | -2.21339 | 278 ft | 7 kts | 77° |
| 2026-04-22 10:51 | 49.70828 | -2.21328 | 279 ft | 0 kts | 71° |